Time;durP1;ratioP1;P1;durP2;ratioP2;P2;SDS_P1;SDS_P2;PMS_P1;PMS_P2;Temp;Humidity;BMP_temperature;BMP_pressure;BME280_temperature;BME280_humidity;BME280_pressure;Samples;Min_cycle;Max_cycle;Signal;HPM_P1;HPM_P2
2021/10/23 00:01:31;;;;;;;10.68;5.35;;;;;;;11.68;86.11;100244.22;6269935;28;20037;-73
2021/10/23 00:04:32;;;;;;;10.37;5.33;;;;;;;11.68;85.25;100244.22;6253629;28;20044;-72
2021/10/23 00:07:32;;;;;;;12.48;5.60;;;;;;;11.47;85.96;100257.69;6253401;28;20756;-72
2021/10/23 00:10:33;;;;;;;10.05;5.50;;;;;;;11.13;87.15;100252.81;6270968;28;20041;-73
2021/10/23 00:13:34;;;;;;;8.50;5.20;;;;;;;11.03;86.86;100250.75;6271154;28;20075;-72
2021/10/23 00:16:35;;;;;;;11.32;5.10;;;;;;;11.00;85.81;100245.72;6269805;28;20045;-72
2021/10/23 00:19:36;;;;;;;9.60;5.00;;;;;;;11.04;86.54;100251.59;6270985;28;20045;-72
2021/10/23 00:22:37;;;;;;;12.73;5.88;;;;;;;10.92;88.21;100250.56;6269642;28;20506;-74
2021/10/23 00:25:38;;;;;;;11.63;6.15;;;;;;;11.13;87.12;100252.81;6253229;28;20472;-73
2021/10/23 00:28:39;;;;;;;12.43;6.07;;;;;;;11.13;86.53;100248.44;6270772;28;20049;-74
2021/10/23 00:31:40;;;;;;;13.95;5.35;;;;;;;10.86;87.79;100253.53;6269725;28;20041;-72
2021/10/23 00:34:41;;;;;;;8.23;5.22;;;;;;;10.69;87.24;100255.34;6253151;28;20495;-73
2021/10/23 00:37:42;;;;;;;7.25;4.68;;;;;;;10.87;84.86;100256.06;6253304;28;20503;-73
2021/10/23 00:40:43;;;;;;;8.15;4.75;;;;;;;10.68;84.20;100261.50;6253109;28;20052;-73
2021/10/23 00:43:45;;;;;;;14.63;4.85;;;;;;;10.74;82.38;100262.06;6253067;28;20045;-73
2021/10/23 00:46:46;;;;;;;8.85;4.75;;;;;;;10.74;81.10;100259.47;6270642;28;20060;-73
2021/10/23 00:49:52;;;;;;;7.57;4.60;;;;;;;10.69;80.34;100265.78;6270578;28;20045;-72
2021/10/23 00:52:53;;;;;;;9.68;4.10;;;;;;;10.67;78.93;100261.59;6270726;28;20041;-72
2021/10/23 00:55:54;;;;;;;7.10;4.07;;;;;;;10.78;77.39;100269.63;6269450;28;20049;-72
2021/10/23 00:58:55;;;;;;;8.95;3.97;;;;;;;10.60;78.19;100268.91;6269509;28;20499;-72
2021/10/23 01:01:56;;;;;;;8.38;3.50;;;;;;;10.48;77.72;100262.66;6270443;28;20071;-72
2021/10/23 01:04:57;;;;;;;6.32;3.60;;;;;;;10.34;76.94;100267.00;6273866;28;20107;-72
2021/10/23 01:07:59;;;;;;;7.82;3.15;;;;;;;10.25;76.66;100261.34;6274051;28;20487;-72
2021/10/23 01:10:59;;;;;;;8.88;3.25;;;;;;;9.97;78.38;100264.63;6273667;28;20093;-72
2021/10/23 01:14:00;;;;;;;7.75;3.40;;;;;;;9.93;77.12;100257.06;6257389;28;20041;-72
2021/10/23 01:17:01;;;;;;;6.35;3.13;;;;;;;10.08;76.11;100269.25;6273764;28;20064;-73
2021/10/23 01:20:02;;;;;;;6.53;2.83;;;;;;;9.93;75.05;100265.72;6275079;28;20052;-72
2021/10/23 01:23:03;;;;;;;8.10;3.25;;;;;;;10.13;74.82;100276.81;6274786;28;20773;-72
2021/10/23 01:26:04;;;;;;;6.18;2.90;;;;;;;10.01;73.96;100273.13;6257244;28;20047;-72
2021/10/23 01:29:10;;;;;;;6.25;2.97;;;;;;;9.86;74.21;100264.34;6273409;28;20116;-72
2021/10/23 01:32:11;;;;;;;5.90;2.28;;;;;;;9.81;73.67;100277.66;6274604;28;20106;-72
2021/10/23 01:35:12;;;;;;;5.40;2.53;;;;;;;9.86;73.83;100274.78;6273390;28;20483;-72
2021/10/23 01:38:13;;;;;;;5.10;2.35;;;;;;;9.83;73.48;100281.00;6274475;28;20041;-72
2021/10/23 01:41:14;;;;;;;7.78;2.97;;;;;;;9.82;72.98;100278.47;6274299;28;20098;-73
2021/10/23 01:44:16;;;;;;;4.90;2.47;;;;;;;9.57;73.96;100282.41;6273039;28;20037;-73
2021/10/23 01:47:17;;;;;;;6.78;2.53;;;;;;;9.41;74.40;100277.19;6272803;28;20294;-72
2021/10/23 01:50:23;;;;;;;6.03;2.28;;;;;;;9.43;74.29;100275.34;6273937;28;20487;-72
2021/10/23 01:53:24;;;;;;;7.10;2.20;;;;;;;9.17;74.95;100263.69;6274252;28;20045;-72
2021/10/23 01:56:25;;;;;;;7.65;2.38;;;;;;;9.34;73.48;100270.59;6272856;28;20045;-73
2021/10/23 01:59:25;;;;;;;4.90;2.20;;;;;;;9.27;73.78;100283.09;6239750;28;20041;-72
2021/10/23 02:02:26;;;;;;;8.95;2.08;;;;;;;9.17;73.94;100286.28;6272471;28;20509;-73
2021/10/23 02:05:27;;;;;;;8.85;2.03;;;;;;;9.30;73.04;100291.69;6272690;28;20044;-72
2021/10/23 02:08:28;;;;;;;5.82;2.20;;;;;;;9.28;73.47;100284.78;6272551;28;20041;-72
2021/10/23 02:11:29;;;;;;;7.78;1.88;;;;;;;9.13;73.67;100298.59;6272271;28;20044;-72
2021/10/23 02:14:30;;;;;;;6.28;2.08;;;;;;;9.15;73.27;100301.97;6271933;28;20049;-73
2021/10/23 02:17:31;;;;;;;4.72;1.85;;;;;;;9.16;73.32;100302.78;6272259;28;20524;-72
2021/10/23 02:20:34;;;;;;;3.38;2.00;;;;;;;9.00;72.87;100302.75;6273477;28;20102;-72
2021/10/23 02:23:35;;;;;;;6.93;2.15;;;;;;;9.12;72.45;100296.94;6272113;28;20480;-72
2021/10/23 02:26:36;;;;;;;3.30;1.63;;;;;;;9.15;71.72;100316.75;6272150;28;20063;-72
2021/10/23 02:29:37;;;;;;;5.75;1.73;;;;;;;8.89;72.19;100321.47;6273085;28;20488;-72
2021/10/23 02:32:38;;;;;;;3.45;2.08;;;;;;;8.87;72.09;100326.78;6271949;28;20045;-72
2021/10/23 02:35:39;;;;;;;5.30;2.00;;;;;;;9.06;71.44;100331.91;6271884;28;20052;-72
2021/10/23 02:38:40;;;;;;;5.72;1.73;;;;;;;9.00;70.58;100334.81;6271801;28;20044;-73
2021/10/23 02:41:41;;;;;;;5.88;2.10;;;;;;;9.06;70.14;100325.88;6273008;28;20068;-72
2021/10/23 02:44:42;;;;;;;3.45;1.85;;;;;;;9.08;69.40;100337.88;6255350;28;20052;-72
2021/10/23 02:47:42;;;;;;;4.95;1.92;;;;;;;9.22;68.61;100339.75;6271397;28;20068;-72
2021/10/23 02:50:43;;;;;;;3.17;1.70;;;;;;;9.09;68.64;100349.13;6271430;28;20045;-73
2021/10/23 02:53:44;;;;;;;4.25;1.60;;;;;;;9.12;67.83;100346.38;6272613;28;20067;-73
2021/10/23 02:56:45;;;;;;;6.32;1.88;;;;;;;9.13;68.55;100344.63;6238607;28;20195;-73
2021/10/23 02:59:45;;;;;;;2.95;1.63;;;;;;;9.20;67.68;100344.22;6272516;28;20126;-73
2021/10/23 03:02:46;;;;;;;4.43;1.98;;;;;;;9.12;67.51;100355.94;6271090;28;20036;-73
2021/10/23 03:05:47;;;;;;;8.50;1.98;;;;;;;9.24;67.20;100365.72;6272396;28;20037;-72
2021/10/23 03:08:48;;;;;;;2.35;1.58;;;;;;;9.07;67.46;100356.19;6273001;28;20045;-73
2021/10/23 03:11:48;;;;;;;3.65;1.33;;;;;;;9.08;67.25;100368.28;6273985;28;20044;-73
2021/10/23 03:14:50;;;;;;;8.68;1.65;;;;;;;8.82;67.50;100364.34;6297921;28;20434;-73
2021/10/23 03:17:51;;;;;;;5.13;1.50;;;;;;;8.90;67.86;100354.41;6296727;28;20535;-72
2021/10/23 03:20:53;;;;;;;3.35;1.70;;;;;;;8.80;68.12;100358.38;6296635;28;20050;-72
2021/10/23 03:23:54;;;;;;;2.55;1.48;;;;;;;8.98;66.64;100362.69;6297646;28;20068;-73
2021/10/23 03:26:55;;;;;;;3.55;1.58;;;;;;;8.81;67.51;100379.13;6254214;28;20133;-73
2021/10/23 03:29:55;;;;;;;3.42;1.60;;;;;;;8.40;69.26;100373.25;6271573;28;20075;-73
2021/10/23 03:32:56;;;;;;;6.30;2.10;;;;;;;8.56;68.49;100379.44;6271634;28;20047;-72
2021/10/23 03:35:57;;;;;;;4.82;1.50;;;;;;;8.45;68.29;100384.31;6271436;28;20045;-72
2021/10/23 03:38:58;;;;;;;3.10;1.63;;;;;;;8.34;69.40;100378.72;6287677;28;20120;-73
2021/10/23 03:41:58;;;;;;;3.22;1.63;;;;;;;8.53;68.93;100384.81;6268997;28;20518;-73
2021/10/23 03:44:59;;;;;;;4.55;1.63;;;;;;;8.65;68.31;100383.38;6280284;28;20041;-73
2021/10/23 03:48:00;;;;;;;5.68;2.20;;;;;;;8.71;68.31;100395.22;6286587;28;20058;-72
2021/10/23 03:51:00;;;;;;;4.25;1.60;;;;;;;8.60;67.86;100398.34;6295087;28;20439;-72
2021/10/23 03:54:01;;;;;;;12.27;2.20;;;;;;;8.43;68.83;100399.16;6295248;28;20037;-72
2021/10/23 03:57:03;;;;;;;5.95;1.65;;;;;;;8.50;68.48;100407.50;6295049;28;20070;-72
2021/10/23 04:00:05;;;;;;;2.92;1.55;;;;;;;8.64;67.99;100415.50;6295409;28;20041;-72
2021/10/23 04:03:06;;;;;;;;;;;;;;;8.58;68.40;100413.19;6296518;28;20549;-72
2021/10/23 04:06:07;;;;;;;3.40;1.65;;;;;;;8.62;68.03;100414.72;6294979;28;19920;-72
2021/10/23 04:09:07;;;;;;;32.50;11.82;;;;;;;8.64;67.62;100418.09;6294854;28;20036;-72
2021/10/23 04:12:08;;;;;;;12.98;4.63;;;;;;;8.59;67.20;100423.53;6294746;28;20051;-72
2021/10/23 04:15:09;;;;;;;7.38;2.42;;;;;;;8.43;68.18;100433.78;6294808;28;20042;-72
2021/10/23 04:18:10;;;;;;;6.22;2.55;;;;;;;8.24;69.01;100425.13;6294780;28;20119;-72
2021/10/23 04:21:13;;;;;;;5.78;2.30;;;;;;;8.19;69.17;100424.47;6260348;28;20055;-72
2021/10/23 04:24:14;;;;;;;5.22;2.40;;;;;;;7.97;71.02;100429.78;6295549;28;20048;-72
2021/10/23 04:27:15;;;;;;;5.70;2.00;;;;;;;8.12;70.05;100430.88;6285749;28;20056;-72
2021/10/23 04:30:16;;;;;;;5.65;1.85;;;;;;;7.98;70.36;100421.09;6286447;28;20049;-72
2021/10/23 04:33:17;;;;;;;4.95;2.00;;;;;;;7.99;69.96;100430.56;6275871;28;20380;-72
2021/10/23 04:36:18;;;;;;;6.65;2.00;;;;;;;7.90;70.42;100437.00;6253231;28;20123;-72
2021/10/23 04:39:19;;;;;;;5.68;2.13;;;;;;;7.75;71.47;100435.94;6274363;28;20048;-72
2021/10/23 04:42:20;;;;;;;5.55;2.28;;;;;;;7.73;71.63;100447.31;6294760;28;20060;-72
2021/10/23 04:45:21;;;;;;;3.22;2.10;;;;;;;7.61;71.45;100441.69;6300236;28;20093;-72
2021/10/23 04:48:21;;;;;;;9.40;3.30;;;;;;;7.58;71.11;100447.03;6300087;28;20099;-73
2021/10/23 04:51:22;;;;;;;18.00;9.43;;;;;;;7.55;71.56;100446.31;6274122;28;20041;-73
2021/10/23 04:54:23;;;;;;;13.27;7.68;;;;;;;7.39;73.08;100451.31;6275539;28;20052;-73
2021/10/23 04:57:23;;;;;;;14.63;7.00;;;;;;;7.38;74.18;100460.84;6275499;28;20395;-73
2021/10/23 05:00:25;;;;;;;9.88;4.72;;;;;;;7.44;72.79;100460.59;6275487;28;20118;-72
2021/10/23 05:03:29;;;;;;;9.60;4.27;;;;;;;7.42;73.67;100465.00;6274082;28;20068;-73
2021/10/23 05:06:30;;;;;;;6.47;3.08;;;;;;;7.50;72.88;100463.84;6275092;28;20434;-72
2021/10/23 05:09:30;;;;;;;6.82;2.83;;;;;;;7.58;72.56;100464.38;6278971;28;20102;-73
2021/10/23 05:12:31;;;;;;;5.15;2.42;;;;;;;7.57;72.80;100463.53;6287476;28;20384;-72
2021/10/23 05:15:32;;;;;;;9.27;2.00;;;;;;;7.45;72.00;100477.88;6291051;28;20414;-73
2021/10/23 05:18:33;;;;;;;7.50;4.57;;;;;;;7.30;72.85;100482.84;6298474;28;20047;-73
2021/10/23 05:21:34;;;;;;;9.38;3.53;;;;;;;7.57;72.24;100486.88;6298664;28;20045;-76
2021/10/23 05:24:35;;;;;;;7.35;3.25;;;;;;;7.60;72.68;100494.56;6298187;28;20119;-76
2021/10/23 05:27:35;;;;;;;8.88;2.05;;;;;;;7.55;70.86;100495.66;6275646;28;20048;-76
2021/10/23 05:30:36;;;;;;;7.55;2.13;;;;;;;7.55;71.46;100506.03;6275318;28;20407;-76
2021/10/23 05:33:37;;;;;;;6.30;2.47;;;;;;;7.66;73.50;100516.84;6275290;28;20045;-76
2021/10/23 05:36:38;;;;;;;5.20;2.20;;;;;;;7.78;72.97;100515.47;6274285;28;20110;-76
2021/10/23 05:39:39;;;;;;;4.53;2.10;;;;;;;7.84;72.69;100518.69;6273824;28;20083;-77
2021/10/23 05:42:40;;;;;;;11.63;2.45;;;;;;;8.02;71.03;100522.22;6299571;28;20044;-76
2021/10/23 05:45:41;;;;;;;6.13;2.47;;;;;;;8.08;71.37;100528.94;6278792;28;20041;-76
2021/10/23 05:48:42;;;;;;;6.00;2.45;;;;;;;8.17;71.50;100538.06;6274310;28;20411;-77
2021/10/23 05:51:42;;;;;;;6.93;2.20;;;;;;;8.13;70.75;100537.34;6274416;28;20041;-76
2021/10/23 05:54:43;;;;;;;13.20;4.57;;;;;;;8.21;71.12;100530.06;6298128;28;20041;-76
2021/10/23 05:57:44;;;;;;;10.60;4.38;;;;;;;8.37;69.69;100547.63;6299580;28;20036;-76
2021/10/23 06:00:54;;;;;;;9.13;4.15;;;;;;;8.43;69.76;100540.41;6297779;28;20491;-76
2021/10/23 06:03:55;;;;;;;9.80;4.18;;;;;;;8.58;68.76;100554.47;6282651;28;20506;-76
2021/10/23 06:06:55;;;;;;;9.68;3.88;;;;;;;8.70;69.12;100568.72;6297998;28;20040;-76
2021/10/23 06:09:58;;;;;;;6.28;2.80;;;;;;;8.80;67.91;100572.56;6299112;28;20128;-76
2021/10/23 06:12:59;;;;;;;10.55;4.20;;;;;;;8.90;68.63;100585.19;6297864;28;20076;-76
2021/10/23 06:15:59;;;;;;;18.80;8.45;;;;;;;8.97;68.21;100594.41;6297906;28;20482;-77
2021/10/23 06:19:00;;;;;;;17.55;7.28;;;;;;;9.06;68.30;100599.19;6297756;28;20482;-76
2021/10/23 06:22:02;;;;;;;22.13;9.23;;;;;;;9.15;68.19;100597.91;6298941;28;20064;-76
2021/10/23 06:25:03;;;;;;;45.73;16.93;;;;;;;9.21;68.23;100597.63;6298749;28;20049;-76
2021/10/23 06:28:04;;;;;;;35.80;14.57;;;;;;;9.08;67.08;100613.81;6297650;28;20056;-77
2021/10/23 06:31:06;;;;;;;11.63;5.43;;;;;;;8.90;66.70;100624.22;6298630;28;20033;-76
2021/10/23 06:34:07;;;;;;;;;;;;;;;9.02;65.83;100618.47;6297933;28;20394;-76
2021/10/23 06:37:10;;;;;;;7.50;2.42;;;;;;;9.15;65.69;100622.19;6298682;28;19921;-77
2021/10/23 06:40:12;;;;;;;5.35;2.50;;;;;;;9.06;66.23;100625.22;6297175;28;20490;-76
2021/10/23 06:43:13;;;;;;;5.95;1.90;;;;;;;9.01;65.37;100641.03;6280737;28;20362;-76
2021/10/23 06:46:14;;;;;;;7.20;2.10;;;;;;;9.31;65.02;100635.34;6298142;28;20551;-77
2021/10/23 06:49:15;;;;;;;4.90;1.88;;;;;;;9.28;65.95;100630.25;6280342;28;20053;-77
2021/10/23 06:52:15;;;;;;;5.13;2.25;;;;;;;8.91;66.22;100634.53;6296847;28;20093;-77
2021/10/23 06:55:16;;;;;;;8.25;2.38;;;;;;;9.04;67.01;100635.69;6296887;28;20045;-77
2021/10/23 06:58:17;;;;;;;7.30;2.42;;;;;;;9.23;65.92;100635.69;6296769;28;20041;-76
2021/10/23 07:01:19;;;;;;;7.68;2.28;;;;;;;9.43;65.05;100626.09;6296551;28;20048;-76
2021/10/23 07:04:22;;;;;;;7.65;2.53;;;;;;;9.62;65.04;100626.94;6297941;28;20064;-76
2021/10/23 07:07:23;;;;;;;4.18;2.10;;;;;;;9.53;64.34;100642.16;6280032;28;20409;-76
2021/10/23 07:10:24;;;;;;;5.30;2.25;;;;;;;9.73;64.88;100647.25;6297703;28;20040;-77
2021/10/23 07:13:25;;;;;;;2.95;1.90;;;;;;;9.87;64.09;100642.22;6296654;28;20063;-77
2021/10/23 07:16:25;;;;;;;5.85;2.30;;;;;;;9.86;63.11;100642.28;6296415;28;20506;-77
2021/10/23 07:19:26;;;;;;;6.45;2.28;;;;;;;10.05;62.81;100658.72;6279851;28;20062;-77
2021/10/23 07:22:27;;;;;;;6.40;1.85;;;;;;;10.30;61.77;100667.16;6296283;28;20037;-77
2021/10/23 07:25:28;;;;;;;5.07;2.10;;;;;;;10.54;60.94;100675.47;6296323;28;20041;-77
2021/10/23 07:28:29;;;;;;;7.35;2.03;;;;;;;10.73;60.16;100684.06;6297427;28;20044;-77
2021/10/23 07:31:29;;;;;;;6.55;1.90;;;;;;;10.87;59.92;100684.19;6279620;28;20068;-77
2021/10/23 07:34:30;;;;;;;8.02;2.15;;;;;;;10.76;59.23;100690.88;6297297;28;20157;-77
2021/10/23 07:37:31;;;;;;;7.18;1.77;;;;;;;10.94;58.76;100696.94;6297315;28;20044;-77
2021/10/23 07:40:32;;;;;;;4.70;1.90;;;;;;;11.22;57.81;100691.06;6295983;28;20074;-77
2021/10/23 07:43:33;;;;;;;3.13;1.80;;;;;;;11.21;56.39;100692.84;6296044;28;20082;-77
2021/10/23 07:46:33;;;;;;;5.93;2.22;;;;;;;10.86;57.66;100697.31;6295631;28;20468;-77
2021/10/23 07:49:34;;;;;;;5.15;2.15;;;;;;;11.47;55.72;100698.44;6295772;28;20040;-77
2021/10/23 07:52:39;;;;;;;7.25;2.25;;;;;;;11.23;56.27;100704.06;6297019;28;20120;-77
2021/10/23 07:55:42;;;;;;;4.25;2.00;;;;;;;11.58;56.68;100713.53;6296971;28;20072;-77
2021/10/23 07:58:43;;;;;;;6.95;2.75;;;;;;;11.24;55.66;100700.53;6295782;28;20059;-77
2021/10/23 08:01:44;;;;;;;6.30;2.78;;;;;;;11.25;54.85;100714.44;6278742;28;20131;-74
2021/10/23 08:04:45;;;;;;;6.50;2.58;;;;;;;11.72;53.88;100713.63;6295853;28;20041;-74
2021/10/23 08:07:46;;;;;;;6.13;2.72;;;;;;;11.84;53.65;100714.69;6295774;28;20041;-74
2021/10/23 08:10:47;;;;;;;10.15;2.80;;;;;;;12.24;53.90;100717.72;6295845;28;20437;-74
2021/10/23 08:13:47;;;;;;;7.88;2.25;;;;;;;12.22;51.46;100723.03;6293958;28;20046;-74
2021/10/23 08:16:48;;;;;;;11.68;3.33;;;;;;;12.18;51.78;100715.44;6294588;28;20428;-74
2021/10/23 08:19:50;;;;;;;6.57;2.88;;;;;;;12.33;51.10;100705.88;6278110;28;20390;-74
2021/10/23 08:22:51;;;;;;;5.43;2.67;;;;;;;12.50;50.75;100713.59;6294815;28;20115;-74
2021/10/23 08:25:54;;;;;;;4.53;2.60;;;;;;;12.25;52.75;100716.78;6294319;28;20047;-74
2021/10/23 08:28:55;;;;;;;6.57;2.90;;;;;;;12.97;49.42;100730.88;6295086;28;20064;-76
2021/10/23 08:31:56;;;;;;;7.37;2.37;;;;;;;12.87;49.46;100730.59;6278782;28;20037;-76
2021/10/23 08:34:58;;;;;;;7.80;2.50;;;;;;;12.89;49.14;100731.34;6295111;28;20048;-73
2021/10/23 08:37:59;;;;;;;5.15;2.30;;;;;;;13.26;48.25;100736.09;6294397;28;20093;-74
2021/10/23 08:41:01;;;;;;;4.90;2.17;;;;;;;12.89;49.15;100735.75;6294606;28;20498;-74
2021/10/23 08:44:06;;;;;;;5.85;2.08;;;;;;;13.15;48.36;100734.16;6294305;28;20094;-73
2021/10/23 08:47:07;;;;;;;6.20;2.30;;;;;;;13.11;48.93;100732.66;6295312;28;20483;-74
2021/10/23 08:50:12;;;;;;;6.65;2.00;;;;;;;13.56;47.74;100740.44;6277517;28;20036;-74
2021/10/23 08:53:14;;;;;;;10.40;2.00;;;;;;;13.65;45.65;100742.47;6294474;28;20414;-74
2021/10/23 08:56:15;;;;;;;4.43;1.80;;;;;;;14.05;46.61;100739.94;6294098;28;20044;-74
2021/10/23 08:59:16;;;;;;;5.22;1.90;;;;;;;14.60;44.25;100736.34;6294059;28;20102;-74
2021/10/23 09:02:19;;;;;;;4.95;1.83;;;;;;;14.69;43.73;100734.88;6294223;28;20044;-74
2021/10/23 09:05:21;;;;;;;3.67;2.00;;;;;;;14.68;44.29;100730.56;6294094;28;20036;-74
2021/10/23 09:08:23;;;;;;;9.93;1.90;;;;;;;14.93;43.44;100744.66;6295064;28;20045;-75
2021/10/23 09:11:28;;;;;;;5.90;1.58;;;;;;;14.56;43.35;100745.38;6295505;28;20041;-74
2021/10/23 09:14:32;;;;;;;3.08;1.50;;;;;;;13.88;43.62;100746.28;6277458;28;20073;-75
2021/10/23 09:17:33;;;;;;;3.20;1.70;;;;;;;14.64;43.91;100739.59;6293858;28;20445;-73
2021/10/23 09:20:39;;;;;;;6.73;1.80;;;;;;;14.60;42.88;100741.59;6295319;28;20049;-75
2021/10/23 09:23:39;;;;;;;5.65;1.95;;;;;;;14.30;43.82;100747.06;6294636;28;20510;-77
2021/10/23 09:26:40;;;;;;;4.88;2.00;;;;;;;14.70;42.21;100745.28;6315406;28;20048;-77
2021/10/23 09:29:41;;;;;;;2.58;1.42;;;;;;;15.21;42.18;100749.69;6300185;28;20063;-77
2021/10/23 09:32:48;;;;;;;3.97;1.88;;;;;;;15.19;42.44;100750.75;6298754;28;20093;-77
2021/10/23 09:35:55;;;;;;;6.15;2.00;;;;;;;14.84;40.76;100748.75;6298825;28;20501;-77
2021/10/23 09:38:59;;;;;;;3.17;1.70;;;;;;;14.85;40.69;100750.44;6299971;28;20040;-75
2021/10/23 09:42:08;;;;;;;5.80;1.90;;;;;;;15.12;41.27;100750.34;6297874;28;20097;-74
2021/10/23 09:45:09;;;;;;;2.97;1.70;;;;;;;14.58;40.28;100740.84;6297688;28;20037;-74
2021/10/23 09:48:12;;;;;;;4.25;1.55;;;;;;;14.83;40.09;100742.66;6297566;28;20057;-74
2021/10/23 09:51:29;;;;;;;5.53;1.67;;;;;;;15.13;41.89;100754.63;6298841;28;20052;-75
2021/10/23 09:54:30;;;;;;;4.60;2.13;;;;;;;14.95;41.23;100751.50;6298898;28;20033;-74
2021/10/23 09:57:31;;;;;;;7.15;1.65;;;;;;;15.51;39.06;100749.34;6298651;28;20051;-75
2021/10/23 10:00:32;;;;;;;4.45;1.75;;;;;;;15.46;39.73;100748.84;6298589;28;20561;-74
2021/10/23 10:03:34;;;;;;;3.13;1.57;;;;;;;15.60;39.34;100749.63;6280901;28;20066;-75
2021/10/23 10:06:48;;;;;;;5.30;1.55;;;;;;;15.27;38.88;100746.63;6297146;28;20555;-75
2021/10/23 10:09:49;;;;;;;3.83;1.30;;;;;;;15.31;40.31;100742.84;6297152;28;20039;-75
2021/10/23 10:12:50;;;;;;;3.50;1.52;;;;;;;15.90;39.96;100751.91;6298286;28;20426;-74
2021/10/23 10:15:53;;;;;;;7.07;1.85;;;;;;;15.38;40.80;100742.41;6297137;28;20049;-74
2021/10/23 10:18:54;;;;;;;6.30;2.35;;;;;;;15.69;39.47;100739.31;6296878;28;20037;-74
2021/10/23 10:22:07;;;;;;;4.13;1.53;;;;;;;15.88;37.80;100744.13;6280457;28;20043;-76
2021/10/23 10:25:25;;;;;;;4.90;1.50;;;;;;;16.39;35.68;100729.00;6296864;28;20269;-73
2021/10/23 10:28:27;;;;;;;3.67;1.58;;;;;;;16.26;36.75;100739.63;6297958;28;20036;-74
2021/10/23 10:32:00;;;;;;;2.47;1.40;;;;;;;16.61;36.15;100733.50;6280152;28;20040;-73
2021/10/23 10:38:41;;;;;;;;;;;;;;;16.26;37.33;100724.66;6298211;28;20036;-73
2021/10/23 10:45:46;;;;;;;7.30;2.30;;;;;;;17.04;36.79;100712.66;6297926;28;20061;-77
2021/10/23 10:48:49;;;;;;;5.95;1.58;;;;;;;16.34;36.84;100713.56;6298041;28;20056;-76
2021/10/23 10:51:49;;;;;;;;;;;;;;;16.89;37.16;100704.13;6281028;28;20624;-76
2021/10/23 10:55:12;;;;;;;4.25;1.73;;;;;;;17.49;34.89;100702.06;6298130;28;19920;-77
2021/10/23 10:58:14;;;;;;;2.67;1.45;;;;;;;16.88;35.08;100696.34;6298091;28;20479;-77
2021/10/23 11:01:23;;;;;;;4.40;1.80;;;;;;;17.04;33.78;100701.25;6298121;28;20402;-76
2021/10/23 11:04:24;;;;;;;3.03;1.60;;;;;;;17.43;34.28;100702.56;6296686;28;20045;-78
2021/10/23 11:08:02;;;;;;;4.35;1.50;;;;;;;17.41;34.28;100696.56;6296670;28;20075;-77
2021/10/23 11:11:05;;;;;;;4.57;1.70;;;;;;;17.44;33.81;100691.06;6296502;28;20067;-76
2021/10/23 11:14:05;;;;;;;4.18;1.60;;;;;;;17.54;32.95;100691.13;6297754;28;20488;-76
2021/10/23 11:17:10;;;;;;;5.57;1.48;;;;;;;17.69;33.29;100697.84;6296452;28;20037;-76
2021/10/23 11:20:11;;;;;;;4.13;1.38;;;;;;;17.81;32.21;100701.28;6296513;28;20513;-76
2021/10/23 11:23:21;;;;;;;3.85;1.30;;;;;;;17.49;32.64;100691.53;6296378;28;20044;-76
2021/10/23 11:26:21;;;;;;;2.85;1.27;;;;;;;17.05;33.07;100692.41;6296361;28;20190;-76
2021/10/23 11:29:23;;;;;;;3.38;1.25;;;;;;;17.28;34.23;100690.59;6279501;28;20483;-76
2021/10/23 11:32:24;;;;;;;2.88;1.25;;;;;;;16.33;34.40;100688.19;6296119;28;20502;-75
2021/10/23 11:35:41;;;;;;;4.63;1.58;;;;;;;16.51;35.96;100693.84;6297358;28;20098;-76
2021/10/23 11:38:49;;;;;;;3.50;1.60;;;;;;;16.79;35.46;100700.50;6297076;28;20380;-76
2021/10/23 11:41:50;;;;;;;7.90;1.98;;;;;;;16.91;35.90;100701.38;6297001;28;20093;-77
2021/10/23 11:44:54;;;;;;;5.00;1.55;;;;;;;16.93;35.68;100699.47;6279214;28;20037;-77
2021/10/23 11:48:10;;;;;;;1.90;1.35;;;;;;;17.23;34.46;100698.03;6311957;28;20068;-77
2021/10/23 11:51:10;;;;;;;6.32;1.40;;;;;;;17.04;34.79;100696.00;6295759;28;20346;-76
2021/10/23 11:54:11;;;;;;;3.58;1.10;;;;;;;16.92;34.13;100681.97;6297531;28;20041;-76
2021/10/23 11:57:38;;;;;;;4.03;1.17;;;;;;;16.51;33.33;100686.81;6295902;28;20036;-76
2021/10/23 12:00:45;;;;;;;1.58;0.80;;;;;;;16.22;31.71;100691.59;6295649;28;20468;-76
2021/10/23 12:03:49;;;;;;;2.35;0.95;;;;;;;16.32;31.74;100689.13;6295713;28;20041;-77
2021/10/23 12:06:49;;;;;;;4.43;1.15;;;;;;;16.13;31.67;100689.69;6295670;28;20508;-76
2021/10/23 12:10:08;;;;;;;4.03;1.20;;;;;;;17.00;31.87;100686.66;6295465;28;20063;-77
2021/10/23 12:13:15;;;;;;;5.75;1.10;;;;;;;16.90;29.98;100686.50;6296757;28;20106;-77
2021/10/23 12:16:19;;;;;;;5.15;1.30;;;;;;;17.05;30.95;100687.16;6295479;28;20036;-76
2021/10/23 12:19:37;;;;;;;3.08;0.98;;;;;;;17.40;28.80;100691.41;6296653;28;20044;-76
2021/10/23 12:22:38;;;;;;;2.08;0.98;;;;;;;17.07;30.87;100688.69;6295454;28;20123;-76
2021/10/23 12:25:40;;;;;;;2.22;0.90;;;;;;;17.29;32.28;100668.53;6295358;28;20464;-76
2021/10/23 12:29:01;;;;;;;2.75;1.20;;;;;;;17.14;31.31;100690.84;6295405;28;20095;-77
2021/10/23 12:32:13;;;;;;;4.88;1.13;;;;;;;16.60;30.41;100690.53;6295264;28;20044;-77
2021/10/23 12:35:25;;;;;;;4.03;1.02;;;;;;;16.55;30.92;100700.56;6295234;28;20040;-77
2021/10/23 12:38:26;;;;;;;2.90;0.90;;;;;;;17.00;31.85;100702.47;6295603;28;20036;-74
2021/10/23 12:41:26;;;;;;;0.98;0.68;;;;;;;16.26;30.27;100706.22;6294425;28;20056;-75
2021/10/23 12:44:27;;;;;;;1.70;0.90;;;;;;;16.88;31.73;100705.09;6295483;28;20124;-75
2021/10/23 12:47:28;;;;;;;3.35;0.70;;;;;;;16.67;30.08;100710.16;6295227;28;20128;-75
2021/10/23 12:50:29;;;;;;;3.15;0.85;;;;;;;16.72;30.26;100694.03;6295320;28;20128;-76
2021/10/23 12:53:30;;;;;;;4.35;0.98;;;;;;;16.72;31.12;100686.13;6294233;28;20075;-75
2021/10/23 12:56:32;;;;;;;1.58;1.13;;;;;;;16.73;31.32;100699.16;6294276;28;20483;-75
2021/10/23 12:59:33;;;;;;;2.40;1.05;;;;;;;16.50;31.15;100687.75;6296137;28;20067;-75
2021/10/23 13:02:34;;;;;;;3.17;1.20;;;;;;;16.46;29.88;100698.63;6282324;28;20492;-72
2021/10/23 13:05:35;;;;;;;3.83;0.80;;;;;;;16.22;30.69;100709.22;6298723;28;20143;-73
2021/10/23 13:08:35;;;;;;;2.20;0.98;;;;;;;16.30;31.41;100691.03;6298619;28;20047;-74
2021/10/23 13:11:39;;;;;;;4.15;1.70;;;;;;;16.53;31.52;100694.56;6281898;28;20106;-75
2021/10/23 13:14:40;;;;;;;9.73;2.50;;;;;;;16.18;32.09;100705.13;6299810;28;20041;-75
2021/10/23 13:17:41;;;;;;;4.50;1.73;;;;;;;15.71;32.72;100711.09;6332593;28;20565;-75
2021/10/23 13:20:42;;;;;;;3.03;1.13;;;;;;;15.46;32.57;100706.75;6299612;28;20049;-75
2021/10/23 13:23:42;;;;;;;1.48;0.95;;;;;;;15.49;32.22;100705.69;6298426;28;20098;-75
2021/10/23 13:26:43;;;;;;;2.20;1.00;;;;;;;15.89;32.79;100697.56;6298321;28;20094;-74
2021/10/23 13:29:44;;;;;;;5.72;1.63;;;;;;;16.02;31.73;100702.78;6299331;28;20057;-75
2021/10/23 13:32:45;;;;;;;2.78;1.33;;;;;;;15.75;32.40;100703.88;6299276;28;20071;-75
2021/10/23 13:35:46;;;;;;;3.47;1.25;;;;;;;15.78;33.04;100702.78;6281633;28;20044;-75
2021/10/23 13:38:50;;;;;;;7.18;2.55;;;;;;;15.52;32.66;100697.56;6281221;28;20144;-75
2021/10/23 13:41:51;;;;;;;5.57;1.70;;;;;;;15.52;33.50;100706.31;6298001;28;20608;-74
2021/10/23 13:44:51;;;;;;;8.55;2.25;;;;;;;15.62;33.82;100705.66;6281216;28;20037;-74
2021/10/23 13:47:52;;;;;;;4.28;1.85;;;;;;;15.57;33.62;100711.25;6280968;28;20049;-74
2021/10/23 13:50:55;;;;;;;8.60;2.58;;;;;;;15.64;34.67;100707.22;6298843;28;20040;-74
2021/10/23 13:53:55;;;;;;;4.38;2.05;;;;;;;15.51;34.02;100709.06;6299511;28;20532;-77
2021/10/23 13:56:56;;;;;;;3.55;1.73;;;;;;;15.55;33.86;100712.31;6281738;28;20040;-77
2021/10/23 13:59:57;;;;;;;3.80;0.90;;;;;;;15.80;33.68;100703.53;6299539;28;20052;-76
2021/10/23 14:02:57;;;;;;;4.05;1.17;;;;;;;15.70;34.19;100714.66;6298367;28;20075;-77
2021/10/23 14:05:59;;;;;;;4.25;1.27;;;;;;;15.14;33.86;100711.66;6298284;28;20125;-78
2021/10/23 14:08:59;;;;;;;7.40;2.25;;;;;;;15.11;34.54;100719.72;6299448;28;20040;-78
2021/10/23 14:12:00;;;;;;;5.88;3.03;;;;;;;15.07;34.59;100707.75;6297100;28;20040;-77
2021/10/23 14:15:01;;;;;;;11.85;4.53;;;;;;;14.77;34.95;100714.19;6298046;28;20119;-77
2021/10/23 14:18:02;;;;;;;10.68;5.45;;;;;;;14.64;35.38;100715.94;6298213;28;20404;-77
2021/10/23 14:21:03;;;;;;;9.45;5.03;;;;;;;14.79;35.33;100712.28;6299182;28;20075;-77